Time;durP1;ratioP1;P1;durP2;ratioP2;P2;SDS_P1;SDS_P2;PMS_P1;PMS_P2;Temp;Humidity;BMP_temperature;BMP_pressure;BME280_temperature;BME280_humidity;BME280_pressure;Samples;Min_cycle;Max_cycle;Signal;HPM_P1;HPM_P2
2022/01/26 00:05:53;;;;;;;37.67;21.37;;;2.00;99.90;;;;;;5076510;28;20169;-67
2022/01/26 00:07:44;;;;;;;32.80;19.87;;;2.00;99.90;;;;;;5070741;28;20305;-67
2022/01/26 00:10:10;;;;;;;37.77;20.83;;;2.00;99.90;;;;;;5075854;28;20203;-68
2022/01/26 00:12:36;;;;;;;33.67;21.40;;;1.90;99.90;;;;;;5075817;28;20236;-68
2022/01/26 00:15:02;;;;;;;35.27;20.70;;;2.00;99.90;;;;;;5075837;28;20166;-67
2022/01/26 00:17:28;;;;;;;41.23;21.83;;;2.00;99.90;;;;;;5075562;28;20600;-67
2022/01/26 00:19:56;;;;;;;37.27;21.10;;;2.00;99.90;;;;;;5075539;28;20231;-67
2022/01/26 00:23:21;;;;;;;36.97;20.97;;;1.90;99.90;;;;;;5075697;28;20638;-67
2022/01/26 00:38:32;;;;;;;39.67;21.20;;;2.00;99.90;;;;;;5075669;28;20184;-68
2022/01/26 00:38:39;;;;;;;38.50;20.97;;;2.00;99.90;;;;;;5075541;28;20201;-68
2022/01/26 00:41:11;;;;;;;39.03;22.13;;;2.00;99.90;;;;;;5075463;28;20161;-68
2022/01/26 00:43:41;;;;;;;37.70;21.53;;;2.00;99.90;;;;;;5075682;28;20178;-67
2022/01/26 00:46:07;;;;;;;38.23;21.07;;;2.00;99.90;;;;;;5075026;28;20173;-68
2022/01/26 00:48:37;;;;;;;38.07;23.23;;;2.10;99.90;;;;;;5075162;28;20711;-68
2022/01/26 00:51:05;;;;;;;37.90;22.33;;;2.10;99.90;;;;;;5075251;28;20197;-68
2022/01/26 00:53:39;;;;;;;38.37;21.67;;;2.10;99.90;;;;;;5074802;28;20166;-68
2022/01/26 00:56:05;;;;;;;41.00;22.73;;;2.20;99.90;;;;;;5074678;28;20185;-67
2022/01/26 00:58:32;;;;;;;40.93;22.13;;;2.10;99.90;;;;;;5073516;28;20189;-68
2022/01/26 01:01:00;;;;;;;32.07;20.80;;;2.10;99.90;;;;;;5073383;28;20174;-68
2022/01/26 01:03:27;;;;;;;40.47;22.97;;;2.00;99.90;;;;;;5073324;28;20208;-68
2022/01/26 01:08:21;;;;;;;40.97;23.80;;;2.10;99.90;;;;;;5074688;28;20197;-68
2022/01/26 01:10:49;;;;;;;45.17;23.53;;;2.10;99.90;;;;;;5074532;28;20162;-68
2022/01/26 01:13:19;;;;;;;46.37;22.97;;;2.10;99.90;;;;;;5073129;28;20169;-69
2022/01/26 01:15:46;;;;;;;41.87;23.67;;;2.10;99.90;;;;;;5074937;28;20571;-68
2022/01/26 01:18:21;;;;;;;38.90;22.03;;;2.10;99.90;;;;;;5074212;28;20581;-68
2022/01/26 01:31:56;;;;;;;45.27;23.53;;;2.10;99.90;;;;;;5074342;28;20165;-68
2022/01/26 01:34:26;;;;;;;47.30;24.57;;;2.10;99.90;;;;;;5072756;28;20627;-68
2022/01/26 01:36:53;;;;;;;43.03;23.90;;;2.10;99.90;;;;;;5074072;28;20232;-68
2022/01/26 01:39:20;;;;;;;44.70;23.70;;;2.00;99.90;;;;;;5073871;28;20730;-68
2022/01/26 01:41:48;;;;;;;42.57;24.10;;;2.10;99.90;;;;;;5073899;28;20170;-68
2022/01/26 01:44:15;;;;;;;41.17;24.17;;;2.10;99.90;;;;;;5073832;28;20176;-68
2022/01/26 01:46:42;;;;;;;46.77;25.47;;;2.10;99.90;;;;;;5073640;28;20190;-68
2022/01/26 01:49:10;;;;;;;44.23;25.17;;;2.10;99.90;;;;;;5072475;28;20263;-68
2022/01/26 01:51:40;;;;;;;47.27;25.93;;;2.10;99.90;;;;;;5073808;28;20166;-68
2022/01/26 01:54:15;;;;;;;46.20;25.77;;;2.00;99.90;;;;;;5072469;28;20634;-68
2022/01/26 01:56:50;;;;;;;45.43;24.73;;;2.10;99.90;;;;;;5073584;28;20673;-68
2022/01/26 01:59:16;;;;;;;49.40;25.70;;;2.20;99.90;;;;;;5073685;28;20622;-68
2022/01/26 02:01:41;;;;;;;49.10;25.20;;;2.20;99.90;;;;;;5073689;28;20253;-68
2022/01/26 02:04:07;;;;;;;50.17;26.67;;;2.20;99.90;;;;;;5073537;28;20603;-68
2022/01/26 02:06:34;;;;;;;55.37;27.13;;;2.10;99.90;;;;;;5072051;28;20201;-68
2022/01/26 02:09:00;;;;;;;49.23;24.77;;;2.10;99.90;;;;;;5073415;28;20197;-68
2022/01/26 02:11:26;;;;;;;57.67;29.33;;;2.10;99.90;;;;;;5073462;28;20170;-68
2022/01/26 02:14:03;;;;;;;49.80;26.93;;;2.10;99.90;;;;;;5073654;28;20514;-67
2022/01/26 02:19:40;;;;;;;52.83;27.13;;;2.00;99.90;;;;;;5073388;28;20177;-67
2022/01/26 02:49:42;;;;;;;59.47;30.47;;;2.10;99.90;;;;;;5072985;28;20589;-68
2022/01/26 02:57:38;;;;;;;70.17;34.33;;;2.10;99.90;;;;;;5073444;28;20201;-68
2022/01/26 03:00:36;;;;;;;64.13;32.30;;;2.10;99.90;;;;;;5073235;28;20150;-68
2022/01/26 03:03:09;;;;;;;65.93;33.40;;;2.10;99.90;;;;;;5072715;28;20209;-68
2022/01/26 03:05:42;;;;;;;70.07;32.67;;;2.10;99.90;;;;;;5073419;28;20192;-67
2022/01/26 03:08:08;;;;;;;74.03;34.67;;;2.10;99.90;;;;;;5071458;28;20202;-68
2022/01/26 03:10:53;;;;;;;65.70;31.10;;;2.10;99.90;;;;;;5073304;28;20173;-68
2022/01/26 03:13:25;;;;;;;79.43;35.67;;;2.10;99.90;;;;;;5071542;28;20185;-67
2022/01/26 03:15:59;;;;;;;79.77;35.27;;;2.10;99.90;;;;;;5073083;28;20241;-68
2022/01/26 03:21:02;;;;;;;72.63;35.37;;;2.10;99.90;;;;;;5073091;28;20181;-68
2022/01/26 03:31:52;;;;;;;74.30;35.77;;;2.10;99.90;;;;;;5072598;28;20202;-67
2022/01/26 03:36:44;;;;;;;76.87;37.17;;;2.00;99.90;;;;;;5074455;28;20190;-67
2022/01/26 03:39:15;;;;;;;80.70;35.77;;;2.10;99.90;;;;;;5076549;28;20245;-68
2022/01/26 03:41:45;;;;;;;85.80;38.07;;;2.00;99.90;;;;;;5074903;28;20200;-67
2022/01/26 03:44:11;;;;;;;80.53;37.37;;;2.00;99.90;;;;;;5074848;28;20177;-68
2022/01/26 03:46:37;;;;;;;78.77;37.27;;;2.00;99.90;;;;;;5074767;28;20201;-68
2022/01/26 03:49:05;;;;;;;83.77;36.73;;;2.10;99.90;;;;;;5075909;28;20196;-67
2022/01/26 03:51:32;;;;;;;85.63;38.50;;;2.00;99.90;;;;;;5076014;28;20170;-67
2022/01/26 03:53:58;;;;;;;96.13;41.23;;;2.00;99.90;;;;;;5074716;28;20170;-67
2022/01/26 03:56:23;;;;;;;88.00;39.70;;;2.00;99.90;;;;;;5074652;28;20205;-67
2022/01/26 03:58:49;;;;;;;84.53;38.33;;;2.10;99.90;;;;;;5074657;28;20184;-67
2022/01/26 04:01:15;;;;;;;86.00;38.27;;;2.10;99.90;;;;;;5076149;28;20170;-67
2022/01/26 04:03:41;;;;;;;91.80;40.50;;;2.10;99.90;;;;;;5076310;28;20167;-67
2022/01/26 04:06:06;;;;;;;88.23;37.97;;;2.10;99.90;;;;;;5074502;28;20702;-67
2022/01/26 04:08:34;;;;;;;86.43;37.80;;;2.10;99.90;;;;;;5074436;28;20229;-68
2022/01/26 04:13:34;;;;;;;85.60;37.53;;;2.10;99.90;;;;;;5076035;28;20161;-67
2022/01/26 04:16:00;;;;;;;81.80;39.07;;;2.10;99.90;;;;;;5075611;28;20178;-67
2022/01/26 04:18:33;;;;;;;86.00;40.07;;;2.00;99.90;;;;;;5075611;28;20249;-68
2022/01/26 04:21:04;;;;;;;82.50;39.50;;;2.00;99.90;;;;;;5074261;28;20532;-68
2022/01/26 04:23:40;;;;;;;89.83;38.50;;;2.00;99.90;;;;;;5075811;28;20242;-68
2022/01/26 04:26:06;;;;;;;83.20;39.47;;;2.00;99.90;;;;;;5073830;28;20231;-67
2022/01/26 04:28:40;;;;;;;82.47;38.60;;;1.90;99.90;;;;;;5075357;28;20271;-68
2022/01/26 04:31:07;;;;;;;82.50;36.80;;;2.00;99.90;;;;;;5075650;28;20147;-68
2022/01/26 04:33:34;;;;;;;76.23;36.97;;;1.90;99.90;;;;;;5075576;28;20513;-67
2022/01/26 04:36:01;;;;;;;81.23;35.97;;;1.90;99.90;;;;;;5075363;28;20170;-67
2022/01/26 04:38:34;;;;;;;80.23;38.03;;;1.90;99.90;;;;;;5075243;28;20174;-67
2022/01/26 04:41:23;;;;;;;78.63;38.47;;;1.90;99.90;;;;;;5075445;28;20155;-67
2022/01/26 04:43:52;;;;;;;85.90;37.07;;;1.90;99.90;;;;;;5073830;28;20174;-68
2022/01/26 04:46:18;;;;;;;80.73;37.63;;;1.90;99.90;;;;;;5075205;28;20277;-68
2022/01/26 04:48:44;;;;;;;85.77;39.37;;;1.90;99.90;;;;;;5073373;28;20202;-67
2022/01/26 04:51:10;;;;;;;84.03;37.70;;;2.00;99.90;;;;;;5075227;28;20223;-68
2022/01/26 04:53:36;;;;;;;78.90;35.70;;;2.00;99.90;;;;;;5074862;28;20171;-68
2022/01/26 04:56:02;;;;;;;81.60;38.93;;;1.90;99.90;;;;;;5075330;28;20234;-67
2022/01/26 04:58:27;;;;;;;81.97;37.10;;;1.90;99.90;;;;;;5075111;28;20711;-67
2022/01/26 05:00:53;;;;;;;83.90;38.93;;;1.90;99.90;;;;;;5075174;28;20564;-67
2022/01/26 05:03:19;;;;;;;76.90;36.87;;;1.90;99.90;;;;;;5074908;28;20248;-67
2022/01/26 05:05:44;;;;;;;79.77;38.90;;;1.90;99.90;;;;;;5074641;28;20268;-68
2022/01/26 05:08:10;;;;;;;86.47;37.47;;;1.90;99.90;;;;;;5074644;28;20250;-67
2022/01/26 05:10:38;;;;;;;82.80;37.97;;;1.90;99.90;;;;;;5075106;28;20220;-67
2022/01/26 05:13:04;;;;;;;89.00;38.60;;;1.90;99.90;;;;;;5074705;28;20166;-67
2022/01/26 05:15:30;;;;;;;84.83;40.27;;;1.90;99.90;;;;;;5073155;28;20178;-67
2022/01/26 05:17:56;;;;;;;86.23;39.50;;;1.90;99.90;;;;;;5074255;28;20201;-67
2022/01/26 05:20:21;;;;;;;78.73;37.60;;;1.80;99.90;;;;;;5074253;28;20170;-67
2022/01/26 05:22:47;;;;;;;89.23;39.80;;;1.80;99.90;;;;;;5072952;28;20205;-67
2022/01/26 05:25:14;;;;;;;90.00;39.13;;;1.80;99.90;;;;;;5074939;28;20197;-67
2022/01/26 05:27:40;;;;;;;82.97;40.00;;;1.80;99.90;;;;;;5074214;28;20214;-68
2022/01/26 05:30:07;;;;;;;90.13;41.67;;;1.80;99.90;;;;;;5074766;28;20174;-68
2022/01/26 05:32:33;;;;;;;85.13;40.67;;;1.80;99.90;;;;;;5074236;28;20174;-67
2022/01/26 05:34:59;;;;;;;92.27;42.43;;;1.80;99.90;;;;;;5074136;28;20189;-67
2022/01/26 05:37:25;;;;;;;88.47;43.17;;;1.80;99.90;;;;;;5074122;28;20596;-67
2022/01/26 05:39:51;;;;;;;99.33;44.00;;;1.80;99.90;;;;;;5074430;28;20169;-68
2022/01/26 05:42:17;;;;;;;89.37;42.97;;;1.90;99.90;;;;;;5074379;28;20174;-67
2022/01/26 05:44:44;;;;;;;95.63;43.73;;;1.90;99.90;;;;;;5073986;28;20169;-67
2022/01/26 05:47:15;;;;;;;96.73;44.60;;;1.90;99.90;;;;;;5074062;28;20281;-67
2022/01/26 05:49:42;;;;;;;97.37;45.63;;;1.90;99.90;;;;;;5073472;28;20255;-67
2022/01/26 05:52:08;;;;;;;92.77;43.47;;;1.90;99.90;;;;;;5075345;28;20638;-67
2022/01/26 05:54:34;;;;;;;102.27;46.40;;;1.90;99.90;;;;;;5073802;28;20181;-67
2022/01/26 05:56:59;;;;;;;99.33;46.07;;;1.90;99.90;;;;;;5074780;28;20193;-67
2022/01/26 05:59:25;;;;;;;106.50;46.43;;;1.90;99.90;;;;;;5071877;28;20227;-67
2022/01/26 06:01:51;;;;;;;100.50;44.93;;;1.80;99.90;;;;;;5072501;28;20181;-67
2022/01/26 06:04:18;;;;;;;119.53;49.90;;;1.90;99.90;;;;;;5072331;28;20181;-67
2022/01/26 06:06:43;;;;;;;98.47;47.60;;;1.90;99.90;;;;;;5072329;28;20619;-67
2022/01/26 06:09:10;;;;;;;101.00;47.20;;;1.90;99.90;;;;;;5073557;28;20201;-67
2022/01/26 06:11:36;;;;;;;107.47;48.60;;;1.90;99.90;;;;;;5073699;28;20173;-67
2022/01/26 06:14:02;;;;;;;108.73;49.60;;;1.90;99.90;;;;;;5072345;28;20227;-68
2022/01/26 06:16:27;;;;;;;103.77;47.33;;;1.90;99.90;;;;;;5072521;28;20610;-67
2022/01/26 06:18:53;;;;;;;112.70;47.97;;;1.90;99.90;;;;;;5073588;28;20215;-68
2022/01/26 06:21:19;;;;;;;122.83;48.37;;;1.90;99.90;;;;;;5074483;28;20178;-67
2022/01/26 06:23:45;;;;;;;114.10;50.67;;;1.90;99.90;;;;;;5072259;28;20181;-67
2022/01/26 06:26:11;;;;;;;125.73;51.77;;;1.90;99.90;;;;;;5073344;28;20235;-67
2022/01/26 06:28:36;;;;;;;149.10;57.47;;;1.90;99.90;;;;;;5073544;28;20273;-67
2022/01/26 06:31:09;;;;;;;145.27;56.93;;;1.90;99.90;;;;;;5072299;28;20204;-67
2022/01/26 06:33:35;;;;;;;157.87;61.87;;;1.80;99.90;;;;;;5072100;28;20174;-67
2022/01/26 06:36:03;;;;;;;150.60;61.37;;;1.80;99.90;;;;;;5072024;28;20195;-67
2022/01/26 06:38:29;;;;;;;140.50;58.20;;;1.80;99.90;;;;;;5072036;28;20188;-68
2022/01/26 06:40:57;;;;;;;151.50;59.30;;;1.90;99.90;;;;;;5071890;28;20188;-67
2022/01/26 06:43:26;;;;;;;147.97;58.97;;;1.90;99.90;;;;;;5072125;28;20208;-67
2022/01/26 06:45:58;;;;;;;154.73;59.50;;;1.90;99.90;;;;;;5073465;28;20185;-68
2022/01/26 06:51:11;;;;;;;151.03;61.10;;;1.90;99.90;;;;;;5073361;28;20189;-67
2022/01/26 06:53:37;;;;;;;148.50;57.87;;;1.90;99.90;;;;;;5073385;28;20154;-68
2022/01/26 06:56:03;;;;;;;154.67;60.80;;;1.90;99.90;;;;;;5071981;28;20203;-67
2022/01/26 06:58:29;;;;;;;162.77;61.33;;;1.90;99.90;;;;;;5072982;28;20184;-65
2022/01/26 07:00:57;;;;;;;149.10;59.63;;;1.90;99.90;;;;;;5073309;28;20182;-64
2022/01/26 07:03:23;;;;;;;145.63;58.20;;;1.90;99.90;;;;;;5073013;28;20178;-63
2022/01/26 07:05:49;;;;;;;148.43;58.80;;;1.90;99.90;;;;;;5071665;28;20696;-64
2022/01/26 07:08:14;;;;;;;152.43;59.67;;;1.90;99.90;;;;;;5072833;28;20210;-64
2022/01/26 07:10:41;;;;;;;156.77;61.73;;;1.80;99.90;;;;;;5074724;28;20174;-64
2022/01/26 07:13:07;;;;;;;152.67;59.03;;;1.90;99.90;;;;;;5077474;28;20205;-67
2022/01/26 07:21:23;;;;;;;158.37;64.20;;;1.90;99.90;;;;;;5076799;28;20173;-67
2022/01/26 07:23:49;;;;;;;189.43;74.20;;;1.90;99.90;;;;;;5075374;28;20170;-64
2022/01/26 07:26:15;;;;;;;203.87;82.80;;;1.90;99.90;;;;;;5076649;28;20186;-64
2022/01/26 07:28:41;;;;;;;161.83;66.33;;;1.90;99.90;;;;;;5076668;28;20285;-64
2022/01/26 07:31:07;;;;;;;168.53;63.27;;;1.90;99.90;;;;;;5075022;28;20299;-64
2022/01/26 07:33:34;;;;;;;150.13;61.03;;;1.90;99.90;;;;;;5076322;28;20162;-64
2022/01/26 07:36:00;;;;;;;148.83;59.80;;;1.90;99.90;;;;;;5076423;28;20630;-65
2022/01/26 07:38:26;;;;;;;169.60;61.60;;;1.90;99.90;;;;;;5074993;28;20192;-64
2022/01/26 07:40:53;;;;;;;154.40;62.27;;;1.90;99.90;;;;;;5076521;28;20190;-64
2022/01/26 07:43:18;;;;;;;179.47;64.20;;;1.90;99.90;;;;;;5076306;28;20184;-63
2022/01/26 07:45:44;;;;;;;153.20;58.30;;;1.90;99.90;;;;;;5076251;28;20638;-64
2022/01/26 07:48:10;;;;;;;150.73;59.00;;;1.90;99.90;;;;;;5075953;28;20206;-64
2022/01/26 07:50:36;;;;;;;150.50;57.50;;;1.90;99.90;;;;;;5076010;28;20174;-64
2022/01/26 07:53:03;;;;;;;157.17;63.13;;;1.90;99.90;;;;;;5076196;28;20180;-63
2022/01/26 07:55:30;;;;;;;174.73;63.37;;;1.90;99.90;;;;;;5076224;28;20231;-63
2022/01/26 07:57:57;;;;;;;148.53;57.67;;;1.90;99.90;;;;;;5075759;28;20228;-64
2022/01/26 08:00:23;;;;;;;138.90;59.67;;;1.90;99.90;;;;;;5075877;28;20228;-63
2022/01/26 08:02:50;;;;;;;150.73;58.37;;;1.90;99.90;;;;;;5075846;28;20181;-64
2022/01/26 08:05:17;;;;;;;149.17;57.73;;;1.90;99.90;;;;;;5076140;28;20518;-63
2022/01/26 08:07:43;;;;;;;147.63;55.67;;;1.90;99.90;;;;;;5075760;28;20194;-64
2022/01/26 08:10:10;;;;;;;148.70;58.50;;;1.90;99.90;;;;;;5075803;28;20528;-63
2022/01/26 08:12:37;;;;;;;163.90;57.27;;;1.90;99.90;;;;;;5076034;28;20219;-63
2022/01/26 08:15:04;;;;;;;151.33;58.50;;;1.90;99.90;;;;;;5075695;28;20177;-63
2022/01/26 08:17:29;;;;;;;152.20;59.37;;;1.90;99.90;;;;;;5074313;28;20198;-63
2022/01/26 08:19:56;;;;;;;153.93;56.33;;;1.80;99.90;;;;;;5074327;28;20178;-63
2022/01/26 08:22:24;;;;;;;148.83;59.13;;;1.80;99.90;;;;;;5074798;28;20174;-64
2022/01/26 08:24:50;;;;;;;141.27;56.97;;;1.80;99.90;;;;;;5075804;28;20185;-63
2022/01/26 08:27:18;;;;;;;137.80;54.40;;;1.80;99.90;;;;;;5075408;28;20638;-64
2022/01/26 08:29:49;;;;;;;147.93;55.03;;;1.80;99.90;;;;;;5075390;28;20225;-63
2022/01/26 08:32:14;;;;;;;149.83;55.03;;;1.80;99.90;;;;;;5075422;28;20241;-64
2022/01/26 08:34:41;;;;;;;148.13;53.73;;;1.80;99.90;;;;;;5075859;28;20638;-64
2022/01/26 08:37:07;;;;;;;145.27;56.00;;;1.80;99.90;;;;;;5075701;28;20255;-64
2022/01/26 08:39:33;;;;;;;141.90;59.70;;;1.80;99.90;;;;;;5075516;28;20634;-64
2022/01/26 08:42:00;;;;;;;142.50;53.63;;;1.80;99.90;;;;;;5075126;28;20585;-64
2022/01/26 08:44:27;;;;;;;135.73;53.30;;;1.80;99.90;;;;;;5075813;28;20178;-63
2022/01/26 08:46:55;;;;;;;133.77;52.17;;;1.80;99.90;;;;;;5075213;28;20749;-64
2022/01/26 08:49:22;;;;;;;138.63;55.57;;;1.80;99.90;;;;;;5057421;28;20228;-64
2022/01/26 08:51:49;;;;;;;145.83;55.93;;;1.80;99.90;;;;;;5075067;28;20174;-64
2022/01/26 08:54:15;;;;;;;134.40;53.00;;;1.80;99.90;;;;;;5074932;28;20178;-64
2022/01/26 08:56:41;;;;;;;145.60;55.83;;;1.90;99.90;;;;;;5075183;28;20193;-64
2022/01/26 08:59:07;;;;;;;141.90;55.17;;;1.90;99.90;;;;;;5075210;28;20638;-66
2022/01/26 09:01:32;;;;;;;132.63;52.03;;;1.90;99.90;;;;;;5075083;28;20252;-67
2022/01/26 09:03:59;;;;;;;136.03;53.03;;;1.90;99.90;;;;;;5073773;28;20698;-67
2022/01/26 09:06:25;;;;;;;129.70;50.77;;;1.90;99.90;;;;;;5075614;28;20229;-67
2022/01/26 09:08:59;;;;;;;129.83;52.63;;;2.00;99.90;;;;;;5074578;28;20255;-67
2022/01/26 09:11:25;;;;;;;143.63;55.27;;;2.00;99.90;;;;;;5073523;28;20283;-67
2022/01/26 09:13:57;;;;;;;145.43;52.97;;;2.00;99.90;;;;;;5073491;28;20622;-67
2022/01/26 09:16:24;;;;;;;142.83;54.33;;;2.00;99.90;;;;;;5074517;28;20569;-67
2022/01/26 09:18:53;;;;;;;158.87;57.20;;;1.90;99.90;;;;;;5074599;28;20181;-67
2022/01/26 09:21:21;;;;;;;152.07;60.10;;;1.90;99.90;;;;;;5074976;28;20162;-67
2022/01/26 09:23:47;;;;;;;144.67;54.97;;;1.90;99.90;;;;;;5074511;28;20174;-67
2022/01/26 09:26:12;;;;;;;168.13;59.60;;;1.90;99.90;;;;;;5074901;28;20190;-67
2022/01/26 09:28:38;;;;;;;162.07;58.43;;;1.80;99.90;;;;;;5074783;28;20205;-67
2022/01/26 09:31:04;;;;;;;161.57;60.33;;;1.80;99.90;;;;;;5074291;28;20634;-67
2022/01/26 09:33:30;;;;;;;169.00;62.47;;;1.80;99.90;;;;;;5072313;28;20231;-67
2022/01/26 09:35:55;;;;;;;171.80;63.27;;;1.80;99.90;;;;;;5072952;28;20223;-67
2022/01/26 09:38:21;;;;;;;161.53;60.27;;;1.80;99.90;;;;;;5074038;28;20218;-67
2022/01/26 09:40:48;;;;;;;159.40;56.17;;;1.80;99.90;;;;;;5074124;28;20189;-67
2022/01/26 09:43:16;;;;;;;156.93;57.30;;;1.80;99.90;;;;;;5072791;28;20178;-67
2022/01/26 09:45:42;;;;;;;146.13;56.50;;;1.80;99.90;;;;;;5074289;28;20245;-67
2022/01/26 09:48:09;;;;;;;159.77;57.70;;;1.80;99.90;;;;;;5074115;28;20217;-67
2022/01/26 09:50:35;;;;;;;149.27;55.80;;;1.70;99.90;;;;;;5073920;28;20173;-67
2022/01/26 09:53:02;;;;;;;147.17;53.37;;;1.80;99.90;;;;;;5073965;28;20176;-67
2022/01/26 09:55:27;;;;;;;151.90;54.57;;;1.80;99.90;;;;;;5074378;28;20227;-67
2022/01/26 09:57:58;;;;;;;142.47;53.60;;;1.80;99.90;;;;;;5073693;28;20658;-67
2022/01/26 10:00:25;;;;;;;135.47;49.60;;;1.80;99.90;;;;;;5074079;28;20192;-68
2022/01/26 10:03:01;;;;;;;139.43;52.37;;;1.80;99.90;;;;;;5074230;28;20177;-68
2022/01/26 10:05:44;;;;;;;160.63;53.23;;;1.80;99.90;;;;;;5073955;28;20172;-63
2022/01/26 10:08:49;;;;;;;141.60;49.77;;;1.80;99.90;;;;;;5073716;28;20210;-64
2022/01/26 10:19:09;;;;;;;144.40;50.10;;;1.80;99.90;;;;;;5073595;28;20253;-68
2022/01/26 10:21:46;;;;;;;154.10;51.87;;;1.90;99.90;;;;;;5073445;28;20162;-68
2022/01/26 10:24:13;;;;;;;142.90;48.13;;;1.90;99.90;;;;;;5072095;28;20684;-68
2022/01/26 10:26:39;;;;;;;147.60;52.17;;;2.00;99.90;;;;;;5073526;28;20259;-68
2022/01/26 10:29:05;;;;;;;137.17;47.03;;;2.00;99.90;;;;;;5073377;28;20578;-68
2022/01/26 10:31:39;;;;;;;138.87;52.27;;;2.00;99.90;;;;;;5073468;28;20187;-64
2022/01/26 10:34:09;;;;;;;142.80;49.97;;;2.00;99.90;;;;;;5072134;28;20212;-64
2022/01/26 10:36:45;;;;;;;135.97;50.60;;;2.00;99.90;;;;;;5073269;28;20189;-64
2022/01/26 10:39:25;;;;;;;141.57;50.37;;;2.00;99.90;;;;;;5074364;28;20253;-64
2022/01/26 10:41:54;;;;;;;122.63;47.50;;;2.00;99.90;;;;;;5073626;28;20162;-64
2022/01/26 10:44:35;;;;;;;135.00;48.53;;;2.10;99.90;;;;;;5073606;28;20185;-65
2022/01/26 10:47:03;;;;;;;141.70;50.43;;;2.10;99.90;;;;;;5077291;28;20201;-64
2022/01/26 10:52:23;;;;;;;141.47;48.33;;;2.10;99.90;;;;;;5077654;28;20211;-64
2022/01/26 10:54:50;;;;;;;142.47;50.80;;;2.20;99.90;;;;;;5077498;28;20162;-64
2022/01/26 10:57:16;;;;;;;145.57;48.70;;;2.10;99.90;;;;;;5077460;28;20219;-64
2022/01/26 10:59:44;;;;;;;142.30;50.57;;;2.10;99.90;;;;;;5075975;28;20182;-67
2022/01/26 11:02:12;;;;;;;143.27;49.87;;;2.20;99.90;;;;;;5077187;28;20209;-68
2022/01/26 11:04:40;;;;;;;135.53;48.20;;;2.20;99.90;;;;;;5077663;28;20638;-68
2022/01/26 11:07:09;;;;;;;125.00;46.63;;;2.20;99.90;;;;;;5076952;28;20198;-68
2022/01/26 11:09:38;;;;;;;143.90;50.57;;;2.20;99.90;;;;;;5077484;28;20563;-68
2022/01/26 11:12:10;;;;;;;136.07;50.23;;;2.20;99.90;;;;;;5075581;28;20178;-68
2022/01/26 11:14:50;;;;;;;138.57;51.43;;;2.30;99.90;;;;;;5075642;28;20696;-68
2022/01/26 11:17:37;;;;;;;150.63;51.77;;;2.30;99.90;;;;;;5076808;28;20213;-68
2022/01/26 11:20:20;;;;;;;133.50;48.03;;;2.40;99.90;;;;;;5077332;28;20169;-68
2022/01/26 11:22:51;;;;;;;143.33;50.77;;;2.40;99.90;;;;;;5077158;28;20166;-67
2022/01/26 11:25:18;;;;;;;142.27;49.83;;;2.40;99.90;;;;;;5077234;28;20174;-67
2022/01/26 11:27:44;;;;;;;140.97;52.27;;;2.50;99.90;;;;;;5075140;28;20287;-67
2022/01/26 11:30:32;;;;;;;148.73;53.27;;;2.50;99.90;;;;;;5076624;28;20638;-67
2022/01/26 11:33:11;;;;;;;138.57;50.10;;;2.40;99.90;;;;;;5076742;28;20162;-64
2022/01/26 11:35:39;;;;;;;137.07;49.87;;;2.50;99.90;;;;;;5076956;28;20185;-65
2022/01/26 11:38:27;;;;;;;139.70;49.57;;;2.50;99.90;;;;;;5075473;28;20197;-64
2022/01/26 11:46:31;;;;;;;147.07;52.60;;;2.50;99.90;;;;;;5077123;28;20596;-64
2022/01/26 11:49:05;;;;;;;140.27;49.97;;;2.40;99.90;;;;;;5076431;28;20563;-64
2022/01/26 11:51:49;;;;;;;135.93;49.90;;;2.40;99.90;;;;;;5076351;28;20195;-64
2022/01/26 11:54:16;;;;;;;134.50;48.63;;;2.40;99.90;;;;;;5076368;28;20193;-64
2022/01/26 11:57:08;;;;;;;124.63;47.93;;;2.40;99.90;;;;;;5074955;28;20190;-67
2022/01/26 11:59:38;;;;;;;134.47;50.63;;;2.40;99.90;;;;;;5076279;28;20162;-67
2022/01/26 12:02:20;;;;;;;138.03;50.20;;;2.40;99.90;;;;;;5076290;28;20174;-67
2022/01/26 12:05:08;;;;;;;138.03;50.40;;;2.40;99.90;;;;;;5077251;28;20153;-64
2022/01/26 12:07:34;;;;;;;135.33;49.80;;;2.40;99.90;;;;;;5075501;28;20227;-63
2022/01/26 12:10:03;;;;;;;142.23;51.30;;;2.40;99.90;;;;;;5076579;28;20173;-63
2022/01/26 12:12:29;;;;;;;139.63;52.90;;;2.40;99.90;;;;;;5076086;28;20638;-63
2022/01/26 12:15:02;;;;;;;141.13;51.47;;;2.40;99.90;;;;;;5075856;28;20180;-64
2022/01/26 12:17:32;;;;;;;142.93;52.23;;;2.50;99.90;;;;;;5075722;28;20209;-63
2022/01/26 12:34:41;;;;;;;123.47;46.83;;;2.50;99.90;;;;;;5063336;28;20196;-64
2022/01/26 12:42:59;;;;;;;136.13;46.77;;;2.50;99.90;;;;;;5075746;28;20169;-64
2022/01/26 12:45:27;;;;;;;128.17;47.83;;;2.50;99.90;;;;;;5075435;28;20162;-64
2022/01/26 12:47:56;;;;;;;102.90;43.00;;;2.50;99.90;;;;;;5074975;28;20198;-64
2022/01/26 12:50:24;;;;;;;122.10;46.57;;;2.50;99.90;;;;;;5075022;28;20166;-64
2022/01/26 12:52:53;;;;;;;123.63;45.20;;;2.50;99.90;;;;;;5073732;28;20565;-64
2022/01/26 12:55:32;;;;;;;123.90;44.33;;;2.50;99.90;;;;;;5075215;28;20166;-63
2022/01/26 12:57:58;;;;;;;126.37;46.93;;;2.50;99.90;;;;;;5074879;28;20702;-63
2022/01/26 13:00:25;;;;;;;120.03;44.20;;;2.50;99.90;;;;;;5075163;28;20170;-64
2022/01/26 13:02:53;;;;;;;108.67;43.03;;;2.50;99.90;;;;;;5075098;28;20181;-64
2022/01/26 13:05:24;;;;;;;111.67;42.57;;;2.50;99.90;;;;;;5075030;28;20178;-64
2022/01/26 13:08:04;;;;;;;107.80;42.10;;;2.50;99.90;;;;;;5074352;28;20745;-64
2022/01/26 13:10:31;;;;;;;114.40;41.83;;;2.50;99.90;;;;;;5073442;28;20578;-64
2022/01/26 13:13:20;;;;;;;102.87;40.23;;;2.50;99.90;;;;;;5074830;28;20170;-64
2022/01/26 13:16:01;;;;;;;95.00;39.90;;;2.50;99.90;;;;;;5074848;28;20180;-64
2022/01/26 13:22:26;;;;;;;99.40;39.77;;;2.60;99.90;;;;;;5075066;28;20161;-64
2022/01/26 13:24:38;;;;;;;100.70;38.43;;;2.60;99.90;;;;;;5073767;28;20193;-64
2022/01/26 13:30:25;;;;;;;95.13;36.70;;;2.60;99.90;;;;;;5074579;28;20549;-64
2022/01/26 13:32:52;;;;;;;87.60;36.43;;;2.60;99.90;;;;;;5073642;28;20193;-64
2022/01/26 13:43:40;;;;;;;97.53;36.97;;;2.60;99.90;;;;;;5074226;28;20642;-64
2022/01/26 13:53:16;;;;;;;91.63;37.13;;;2.60;99.90;;;;;;5074394;28;20177;-64
2022/01/26 13:58:27;;;;;;;85.53;37.17;;;2.60;99.90;;;;;;5074182;28;20194;-64
2022/01/26 14:00:58;;;;;;;83.07;36.30;;;2.60;99.90;;;;;;5073701;28;20225;-64
2022/01/26 14:03:27;;;;;;;95.57;37.87;;;2.60;99.90;;;;;;5074247;28;20159;-64
2022/01/26 14:05:52;;;;;;;87.67;38.57;;;2.60;99.90;;;;;;5073819;28;20185;-64
2022/01/26 14:08:18;;;;;;;88.43;38.03;;;2.60;99.90;;;;;;5073512;28;20562;-65
2022/01/26 14:10:46;;;;;;;86.47;36.87;;;2.50;99.90;;;;;;5073534;28;20220;-65
2022/01/26 14:13:13;;;;;;;96.07;38.87;;;2.50;99.90;;;;;;5074021;28;20176;-65
2022/01/26 14:15:43;;;;;;;84.43;37.67;;;2.50;99.90;;;;;;5073816;28;20166;-64
2022/01/26 14:21:07;;;;;;;90.30;35.33;;;2.50;99.90;;;;;;5073179;28;20158;-64
2022/01/26 14:23:59;;;;;;;91.37;38.00;;;2.50;99.90;;;;;;5073949;28;20166;-64
2022/01/26 14:26:32;;;;;;;86.30;35.77;;;2.50;99.90;;;;;;5073700;28;20212;-64
2022/01/26 14:28:59;;;;;;;88.17;38.13;;;2.50;99.90;;;;;;5074087;28;20261;-63
2022/01/26 14:31:53;;;;;;;88.83;37.33;;;2.50;99.90;;;;;;5074416;28;20146;-66
2022/01/26 14:34:50;;;;;;;81.53;34.47;;;2.50;99.90;;;;;;5073060;28;20177;-67
2022/01/26 14:40:03;;;;;;;89.00;36.40;;;2.50;99.90;;;;;;5073477;28;20248;-66
2022/01/26 14:56:00;;;;;;;79.17;32.33;;;2.50;99.90;;;;;;5073089;28;20150;-65
2022/01/26 15:32:34;;;;;;;72.53;32.73;;;2.50;99.90;;;;;;5073230;28;20203;-64
2022/01/26 15:34:02;;;;;;;77.50;32.80;;;2.50;99.90;;;;;;5071591;28;20178;-64
2022/01/26 15:50:13;;;;;;;76.73;33.57;;;2.50;99.90;;;;;;5076163;28;20280;-64
2022/01/26 16:20:08;;;;;;;78.40;33.50;;;2.50;99.90;;;;;;5075715;28;20232;-64
2022/01/26 18:39:40;;;;;;;85.47;36.13;;;2.60;99.90;;;;;;5056501;28;20204;-64
2022/01/26 18:50:13;;;;;;;85.30;36.97;;;2.50;99.90;;;;;;5073929;28;20273;-63
2022/01/26 18:52:40;;;;;;;91.07;39.83;;;2.50;99.90;;;;;;5072076;28;20166;-63
2022/01/26 18:55:07;;;;;;;86.83;38.20;;;2.50;99.90;;;;;;5073383;28;20173;-63
2022/01/26 18:57:32;;;;;;;95.67;39.83;;;2.50;99.90;;;;;;5074031;28;20544;-64
2022/01/26 18:59:58;;;;;;;100.40;37.73;;;2.50;99.90;;;;;;5073348;28;20175;-66
2022/01/26 19:02:25;;;;;;;92.87;40.27;;;2.50;99.90;;;;;;5073136;28;20165;-63
2022/01/26 19:04:51;;;;;;;89.67;39.97;;;2.50;99.90;;;;;;5073408;28;20162;-64
2022/01/26 19:07:17;;;;;;;94.77;39.13;;;2.50;99.90;;;;;;5076242;28;20219;-63
2022/01/26 19:09:47;;;;;;;90.07;39.53;;;2.50;99.90;;;;;;5076942;28;20190;-65